Time;durP1;ratioP1;P1;durP2;ratioP2;P2;SDS_P1;SDS_P2;PMS_P1;PMS_P2;Temp;Humidity;BMP_temperature;BMP_pressure;BME280_temperature;BME280_humidity;BME280_pressure;Samples;Min_cycle;Max_cycle;Signal;HPM_P1;HPM_P2
2024/03/26 00:00:11;;;;;;;9.45;3.53;;;;;;;2.04;100.00;100323.63;6085563;23;20478;-72
2024/03/26 00:02:37;;;;;;;7.32;3.50;;;;;;;2.04;100.00;100312.25;6112929;23;20021;-73
2024/03/26 00:05:03;;;;;;;6.35;3.90;;;;;;;2.01;100.00;100310.06;6061631;23;20104;-74
2024/03/26 00:07:29;;;;;;;7.75;3.75;;;;;;;1.98;100.00;100315.78;6086621;23;20017;-73
2024/03/26 00:09:55;;;;;;;7.75;4.13;;;;;;;1.97;100.00;100316.84;6062138;23;20018;-75
2024/03/26 00:12:22;;;;;;;7.47;3.70;;;;;;;1.98;100.00;100302.59;6062250;23;20032;-72
2024/03/26 00:14:48;;;;;;;7.38;3.92;;;;;;;1.94;100.00;100301.41;6086993;23;20017;-74
2024/03/26 00:17:14;;;;;;;9.25;3.83;;;;;;;1.95;100.00;100301.19;6085922;23;20021;-74
2024/03/26 00:19:40;;;;;;;9.38;3.97;;;;;;;1.95;100.00;100298.53;6063204;23;20025;-73
2024/03/26 00:22:06;;;;;;;7.43;4.40;;;;;;;1.95;100.00;100308.31;6062443;23;20041;-73
2024/03/26 00:24:32;;;;;;;11.68;3.72;;;;;;;1.95;100.00;100295.09;6063765;23;20400;-73
2024/03/26 00:26:57;;;;;;;6.18;3.58;;;;;;;1.93;100.00;100295.34;6085716;23;20014;-73
2024/03/26 00:29:23;;;;;;;6.07;3.55;;;;;;;1.91;100.00;100297.41;6086908;23;20412;-74
2024/03/26 00:31:50;;;;;;;9.55;3.90;;;;;;;1.90;100.00;100301.88;6086052;23;20021;-73
2024/03/26 00:34:15;;;;;;;6.65;3.67;;;;;;;1.90;100.00;100293.16;6112250;23;20014;-74
2024/03/26 00:36:41;;;;;;;10.05;4.10;;;;;;;1.86;100.00;100295.41;6062814;23;20256;-72
2024/03/26 00:39:08;;;;;;;8.20;4.80;;;;;;;1.85;100.00;100287.72;6111622;23;20092;-73
2024/03/26 00:41:34;;;;;;;7.05;3.60;;;;;;;1.82;100.00;100294.25;6064599;23;20017;-75
2024/03/26 00:44:00;;;;;;;9.60;4.13;;;;;;;1.81;100.00;100291.81;6062866;23;20018;-80
2024/03/26 00:46:25;;;;;;;9.95;4.05;;;;;;;1.81;100.00;100286.53;6038825;23;20459;-77
2024/03/26 00:48:52;;;;;;;7.13;4.00;;;;;;;1.79;100.00;100278.06;6062173;23;20025;-75
2024/03/26 00:51:18;;;;;;;9.63;3.80;;;;;;;1.75;100.00;100285.59;6039512;23;20426;-77
2024/03/26 00:53:43;;;;;;;9.27;4.25;;;;;;;1.71;100.00;100281.81;6038867;23;20125;-75
2024/03/26 00:56:09;;;;;;;10.13;4.30;;;;;;;1.73;100.00;100279.75;6061910;23;20487;-76
2024/03/26 00:58:36;;;;;;;9.68;4.30;;;;;;;1.72;100.00;100275.50;6062843;23;20018;-75
2024/03/26 01:01:09;;;;;;;6.15;3.80;;;;;;;1.73;100.00;100278.94;6063554;23;20018;-75
2024/03/26 01:03:35;;;;;;;8.80;4.22;;;;;;;1.69;100.00;100283.84;6087096;23;20132;-75
2024/03/26 01:06:03;;;;;;;8.85;5.57;;;;;;;1.70;100.00;100274.91;6059967;23;20013;-76
2024/03/26 01:08:29;;;;;;;6.82;4.00;;;;;;;1.72;100.00;100267.56;6062919;23;20073;-78
2024/03/26 01:10:55;;;;;;;11.13;4.18;;;;;;;1.78;100.00;100271.16;6063345;23;20022;-75
2024/03/26 01:13:22;;;;;;;9.93;4.05;;;;;;;1.75;100.00;100271.59;6112550;23;20919;-76
2024/03/26 01:15:48;;;;;;;10.43;4.00;;;;;;;1.76;100.00;100271.41;6062654;23;20452;-77
2024/03/26 01:18:14;;;;;;;8.73;4.57;;;;;;;1.80;100.00;100277.81;6085041;23;20022;-75
2024/03/26 01:20:43;;;;;;;12.35;4.13;;;;;;;1.82;100.00;100267.84;6087859;23;20010;-74
2024/03/26 01:23:10;;;;;;;11.38;4.53;;;;;;;1.84;100.00;100265.78;6062959;23;20026;-74
2024/03/26 01:25:36;;;;;;;13.43;4.70;;;;;;;1.86;100.00;100262.94;6087398;23;20132;-76
2024/03/26 01:28:02;;;;;;;11.05;4.15;;;;;;;1.87;100.00;100260.06;6109283;23;20013;-75
2024/03/26 01:30:28;;;;;;;8.80;3.80;;;;;;;1.85;100.00;100262.13;6085381;23;20024;-75
2024/03/26 01:32:57;;;;;;;11.10;4.22;;;;;;;1.87;100.00;100259.25;6062406;23;20025;-77
2024/03/26 01:35:24;;;;;;;11.43;4.63;;;;;;;1.89;100.00;100263.28;6085775;23;20136;-79
2024/03/26 01:37:49;;;;;;;5.18;3.53;;;;;;;1.86;100.00;100266.38;6112205;23;20444;-74
2024/03/26 01:40:15;;;;;;;11.23;4.90;;;;;;;1.85;100.00;100258.69;6111361;23;20018;-75
2024/03/26 01:42:41;;;;;;;9.85;4.55;;;;;;;1.84;100.00;100263.16;6062674;23;20130;-75
2024/03/26 01:45:08;;;;;;;6.75;4.00;;;;;;;1.81;100.00;100255.66;6086704;23;20045;-76
2024/03/26 01:47:38;;;;;;;9.95;4.25;;;;;;;1.78;100.00;100250.84;6088066;23;20114;-76
2024/03/26 01:50:09;;;;;;;10.27;5.15;;;;;;;1.78;100.00;100250.84;6087781;23;20014;-77
2024/03/26 01:52:36;;;;;;;9.80;3.75;;;;;;;1.79;100.00;100244.53;6064129;23;20022;-76
2024/03/26 01:55:04;;;;;;;9.70;4.35;;;;;;;1.80;100.00;100250.63;6087930;23;20521;-78
2024/03/26 01:57:30;;;;;;;9.02;4.63;;;;;;;1.80;100.00;100243.50;6088176;23;20037;-76
2024/03/26 01:59:56;;;;;;;9.45;4.28;;;;;;;1.82;100.00;100252.00;6088277;23;20749;-77
2024/03/26 02:02:22;;;;;;;9.32;4.15;;;;;;;1.81;100.00;100245.09;6063361;23;20053;-78
2024/03/26 02:04:49;;;;;;;8.93;4.43;;;;;;;1.80;100.00;100243.50;6040036;23;20025;-77
2024/03/26 02:07:18;;;;;;;11.55;5.07;;;;;;;1.77;100.00;100238.69;6038352;23;20025;-77
2024/03/26 02:09:46;;;;;;;11.68;3.95;;;;;;;1.75;100.00;100240.72;6086112;23;20546;-77
2024/03/26 02:12:11;;;;;;;9.73;4.57;;;;;;;1.77;100.00;100246.59;6088938;23;20100;-75
2024/03/26 02:14:37;;;;;;;10.75;4.00;;;;;;;1.77;100.00;100245.78;6065225;23;20075;-77
2024/03/26 02:17:04;;;;;;;9.93;4.05;;;;;;;1.78;100.00;100245.56;6038178;23;20325;-75
2024/03/26 02:19:30;;;;;;;11.00;4.10;;;;;;;1.78;100.00;100244.75;6067087;23;20014;-74
2024/03/26 02:21:56;;;;;;;;;;;;;;;1.80;100.00;100243.50;6067573;23;20029;-74
2024/03/26 02:24:21;;;;;;;7.95;3.40;;;;;;;1.80;100.00;100232.94;6066894;23;19917;-74
2024/03/26 02:26:47;;;;;;;11.70;4.30;;;;;;;1.80;100.00;100238.22;6041680;23;20022;-74
2024/03/26 02:29:16;;;;;;;9.82;4.45;;;;;;;1.79;100.00;100230.53;6088166;23;20018;-77
2024/03/26 02:31:42;;;;;;;8.05;4.07;;;;;;;1.79;100.00;100225.25;6114745;23;20021;-77
2024/03/26 02:34:09;;;;;;;6.90;4.43;;;;;;;1.78;100.00;100213.88;6087866;23;20010;-77
2024/03/26 02:36:34;;;;;;;8.48;3.53;;;;;;;1.78;100.00;100223.63;6065018;23;20021;-77
2024/03/26 02:39:01;;;;;;;6.65;3.47;;;;;;;1.79;100.00;100223.41;6040228;23;20018;-75
2024/03/26 02:41:27;;;;;;;11.35;4.40;;;;;;;1.78;100.00;100224.44;6041813;23;20467;-76
2024/03/26 02:43:53;;;;;;;11.75;3.83;;;;;;;1.77;100.00;100219.41;6064379;23;20013;-74
2024/03/26 02:46:19;;;;;;;10.50;4.13;;;;;;;1.77;100.00;100222.03;6087437;23;20511;-79
2024/03/26 02:48:44;;;;;;;8.45;3.45;;;;;;;1.76;100.00;100215.94;6114773;23;20021;-80
2024/03/26 02:51:11;;;;;;;8.95;4.43;;;;;;;1.77;100.00;100214.13;6063299;23;20022;-76
2024/03/26 02:53:37;;;;;;;8.05;3.40;;;;;;;1.74;100.00;100219.81;6088401;23;20018;-76
2024/03/26 02:56:03;;;;;;;8.02;3.42;;;;;;;1.73;100.00;100221.66;6063203;23;20107;-75
2024/03/26 02:58:29;;;;;;;8.55;4.25;;;;;;;1.68;100.00;100223.34;6086589;23;20081;-78
2024/03/26 03:01:08;;;;;;;7.68;3.40;;;;;;;1.62;100.00;100228.50;6063588;23;20429;-78
2024/03/26 03:03:37;;;;;;;9.73;3.65;;;;;;;1.58;100.00;100216.78;6064240;23;20360;-76
2024/03/26 03:06:07;;;;;;;9.27;3.40;;;;;;;1.51;100.00;100216.06;6040343;23;20100;-78
2024/03/26 03:08:33;;;;;;;8.60;3.88;;;;;;;1.45;100.00;100218.78;6039830;23;20127;-78
2024/03/26 03:10:59;;;;;;;6.93;3.85;;;;;;;1.43;100.00;100218.22;6089127;23;20546;-78
2024/03/26 03:13:24;;;;;;;6.38;3.55;;;;;;;1.41;100.00;100223.69;6063468;23;20017;-78
2024/03/26 03:15:50;;;;;;;6.75;3.25;;;;;;;1.39;100.00;100214.41;6088345;23;20018;-75
2024/03/26 03:18:19;;;;;;;9.10;3.45;;;;;;;1.34;100.00;100217.69;6063663;23;20018;-74
2024/03/26 03:20:45;;;;;;;7.82;3.20;;;;;;;1.35;100.00;100214.03;6040912;23;20025;-76
2024/03/26 03:23:11;;;;;;;9.52;3.60;;;;;;;1.34;100.00;100213.22;6088301;23;20014;-80
2024/03/26 03:25:36;;;;;;;6.50;2.95;;;;;;;1.41;100.00;100209.69;6114208;23;20060;-79
2024/03/26 03:28:03;;;;;;;7.95;3.20;;;;;;;1.40;100.00;100205.44;6087768;23;20037;-78
2024/03/26 03:30:29;;;;;;;10.73;3.25;;;;;;;1.41;100.00;100212.34;6062876;23;20029;-77
2024/03/26 03:32:55;;;;;;;9.65;3.58;;;;;;;1.40;100.00;100205.44;6086619;23;20025;-77
2024/03/26 03:35:20;;;;;;;7.13;3.42;;;;;;;1.39;100.00;100204.66;6062597;23;20006;-77
2024/03/26 03:37:46;;;;;;;7.35;3.08;;;;;;;1.40;100.00;100205.44;6063068;23;20096;-77
2024/03/26 03:40:12;;;;;;;9.38;4.88;;;;;;;1.38;100.00;100203.03;6060524;23;20472;-76
2024/03/26 03:42:38;;;;;;;9.48;3.33;;;;;;;1.37;100.00;100201.44;6063753;23;20010;-77
2024/03/26 03:45:06;;;;;;;;;;;;;;;1.36;100.00;100200.63;6064261;23;20025;-77
2024/03/26 03:47:33;;;;;;;8.90;2.80;;;;;;;1.37;100.00;100201.44;6086775;23;19971;-76
2024/03/26 03:49:59;;;;;;;6.35;3.15;;;;;;;1.39;100.00;100194.09;6063186;23;20018;-75
2024/03/26 03:52:25;;;;;;;8.13;3.63;;;;;;;1.40;100.00;100190.44;6086215;23;20092;-78
2024/03/26 03:54:52;;;;;;;7.82;3.47;;;;;;;1.42;100.00;100187.56;6087541;23;20010;-75
2024/03/26 03:57:18;;;;;;;10.38;3.78;;;;;;;1.39;100.00;100188.81;6062689;23;20045;-76
2024/03/26 03:59:50;;;;;;;7.32;2.63;;;;;;;1.45;100.00;100187.13;6114766;23;20519;-75
2024/03/26 04:02:17;;;;;;;7.78;3.30;;;;;;;1.46;100.00;100188.72;6063924;23;20026;-76
2024/03/26 04:04:43;;;;;;;5.78;2.72;;;;;;;1.46;100.00;100186.91;6089668;23;20020;-75
2024/03/26 04:07:10;;;;;;;7.13;2.80;;;;;;;1.45;100.00;100176.56;6114693;23;20021;-74
2024/03/26 04:09:36;;;;;;;7.32;2.58;;;;;;;1.44;100.00;100174.97;6089274;23;20138;-74
2024/03/26 04:12:01;;;;;;;5.97;3.17;;;;;;;1.46;100.00;100168.44;6115427;23;20018;-74
2024/03/26 04:14:27;;;;;;;7.53;3.17;;;;;;;1.45;100.00;100166.03;6088999;23;20482;-73
2024/03/26 04:16:53;;;;;;;9.25;3.28;;;;;;;1.47;100.00;100163.94;6065199;23;20094;-74
2024/03/26 04:19:18;;;;;;;7.60;3.15;;;;;;;1.43;100.00;100152.25;6114861;23;20045;-74
2024/03/26 04:21:44;;;;;;;9.18;2.83;;;;;;;1.41;100.00;100149.00;6116552;23;20080;-73
2024/03/26 04:24:10;;;;;;;7.47;2.90;;;;;;;1.41;100.00;100159.56;6088977;23;20063;-74
2024/03/26 04:26:37;;;;;;;10.05;2.92;;;;;;;1.43;100.00;100160.16;6066144;23;20479;-73
2024/03/26 04:29:04;;;;;;;10.00;3.00;;;;;;;1.43;100.00;100158.34;6089608;23;20017;-73
2024/03/26 04:31:30;;;;;;;6.60;2.72;;;;;;;1.43;100.00;100154.88;6115530;23;20021;-73
2024/03/26 04:33:56;;;;;;;7.35;3.10;;;;;;;1.44;100.00;100154.66;6066725;23;20024;-73
2024/03/26 04:36:22;;;;;;;7.10;2.60;;;;;;;1.44;100.00;100156.50;6066468;23;20018;-73
2024/03/26 04:38:50;;;;;;;5.32;2.90;;;;;;;1.43;100.00;100146.97;6089922;23;20036;-74
2024/03/26 04:41:16;;;;;;;6.82;2.72;;;;;;;1.42;100.00;100151.41;6066079;23;20025;-73
2024/03/26 04:43:42;;;;;;;7.65;2.90;;;;;;;1.43;100.00;100146.97;6065577;23;20021;-74
2024/03/26 04:46:08;;;;;;;5.55;2.53;;;;;;;1.44;100.00;100140.66;6089332;23;20069;-73
2024/03/26 04:48:36;;;;;;;6.57;2.92;;;;;;;1.45;100.00;100150.19;6088417;23;20089;-72
2024/03/26 04:51:02;;;;;;;6.53;2.33;;;;;;;1.45;100.00;100144.91;6115832;23;20017;-75
2024/03/26 04:53:28;;;;;;;8.52;2.95;;;;;;;1.45;100.00;100140.44;6064175;23;20017;-74
2024/03/26 04:55:54;;;;;;;10.23;2.88;;;;;;;1.45;100.00;100137.78;6088735;23;20018;-73
2024/03/26 04:58:20;;;;;;;5.88;3.22;;;;;;;1.44;100.00;100132.75;6087982;23;20373;-72
2024/03/26 05:00:48;;;;;;;4.93;2.47;;;;;;;1.46;100.00;100133.31;6066134;23;20028;-72
2024/03/26 05:03:14;;;;;;;8.05;2.83;;;;;;;1.45;100.00;100135.16;6113710;23;20029;-75
2024/03/26 05:05:39;;;;;;;3.95;2.05;;;;;;;1.46;100.00;100134.13;6064519;23;20409;-74
2024/03/26 05:08:08;;;;;;;5.82;2.53;;;;;;;1.48;100.00;100133.88;6065890;23;20025;-75
2024/03/26 05:10:33;;;;;;;6.05;2.70;;;;;;;1.48;100.00;100115.41;6064375;23;20161;-73
2024/03/26 05:13:02;;;;;;;5.18;2.30;;;;;;;1.48;100.00;100110.13;6089386;23;20085;-73
2024/03/26 05:15:28;;;;;;;8.35;3.00;;;;;;;1.45;100.00;100106.13;6064527;23;20602;-74
2024/03/26 05:17:53;;;;;;;9.65;2.20;;;;;;;1.49;100.00;100103.84;6065219;23;20022;-74
2024/03/26 05:20:21;;;;;;;9.13;3.78;;;;;;;1.51;100.00;100096.50;6064202;23;20024;-73
2024/03/26 05:22:46;;;;;;;4.78;2.40;;;;;;;1.53;100.00;100099.72;6066154;23;20017;-74
2024/03/26 05:25:12;;;;;;;10.40;2.90;;;;;;;1.57;100.00;100095.63;6092191;23;20025;-74
2024/03/26 05:27:38;;;;;;;3.75;2.45;;;;;;;1.60;100.00;100093.31;6091798;23;20014;-75
2024/03/26 05:30:05;;;;;;;8.00;2.65;;;;;;;1.62;100.00;100095.72;6043946;23;20014;-75
2024/03/26 05:32:30;;;;;;;6.93;2.88;;;;;;;1.64;100.00;100088.41;6117621;23;20017;-73
2024/03/26 05:34:56;;;;;;;7.95;3.20;;;;;;;1.66;100.00;100075.78;6093328;23;20014;-73
2024/03/26 05:37:23;;;;;;;5.63;2.50;;;;;;;1.66;100.00;100082.88;6067693;23;20435;-75
2024/03/26 05:39:49;;;;;;;6.32;2.47;;;;;;;1.66;100.00;100075.78;6092684;23;20064;-73
2024/03/26 05:42:15;;;;;;;11.05;4.53;;;;;;;1.68;100.00;100075.53;6091728;23;20663;-72
2024/03/26 05:44:40;;;;;;;10.13;3.22;;;;;;;1.71;100.00;100075.91;6092275;23;20025;-73
2024/03/26 05:47:06;;;;;;;6.10;3.10;;;;;;;1.74;100.00;100077.28;6116338;23;20021;-75
2024/03/26 05:49:33;;;;;;;7.45;3.17;;;;;;;1.76;100.00;100068.13;6094671;23;20033;-75
2024/03/26 05:51:59;;;;;;;9.05;3.35;;;;;;;1.78;100.00;100063.41;6093476;23;20014;-73
2024/03/26 05:54:24;;;;;;;9.45;3.05;;;;;;;1.83;100.00;100062.69;6091921;23;20017;-73
2024/03/26 05:56:51;;;;;;;;;;;;;;;1.88;100.00;100055.69;6119355;23;20014;-74
2024/03/26 05:59:17;;;;;;;8.23;3.03;;;;;;;1.92;100.00;100066.63;6117355;23;19996;-74
2024/03/26 06:01:43;;;;;;;11.20;3.13;;;;;;;1.98;100.00;100059.63;6118983;23;20152;-73
2024/03/26 06:04:09;;;;;;;8.50;3.53;;;;;;;2.02;100.00;100056.28;6092147;23;20749;-73
2024/03/26 06:06:35;;;;;;;6.72;3.65;;;;;;;2.06;100.00;100056.63;6091559;23;20075;-75
2024/03/26 06:09:02;;;;;;;8.27;3.33;;;;;;;2.12;100.00;100058.34;6091991;23;20025;-75
2024/03/26 06:11:29;;;;;;;8.07;3.67;;;;;;;2.15;100.00;100050.75;6092443;23;20018;-74
2024/03/26 06:13:56;;;;;;;6.65;3.20;;;;;;;2.19;100.00;100054.56;6091973;23;20132;-75
2024/03/26 06:16:22;;;;;;;;;;;;;;;2.25;100.00;100055.47;6149402;23;20067;-76
2024/03/26 06:18:48;;;;;;;6.88;2.50;;;;;;;2.28;100.00;100047.06;6126607;23;19920;-78
2024/03/26 06:21:13;;;;;;;6.30;3.25;;;;;;;2.34;100.00;100040.06;6152437;23;20017;-79
2024/03/26 06:23:39;;;;;;;8.95;3.45;;;;;;;2.40;100.00;100036.50;6127142;23;20017;-78
2024/03/26 06:26:05;;;;;;;8.38;3.88;;;;;;;2.45;100.00;100028.69;6152273;23;20017;-78
2024/03/26 06:28:31;;;;;;;6.60;3.50;;;;;;;2.53;100.00;100023.03;6127070;23;20011;-78
2024/03/26 06:30:56;;;;;;;8.73;2.90;;;;;;;2.57;100.00;100024.16;6152004;23;20024;-77
2024/03/26 06:33:22;;;;;;;5.03;3.00;;;;;;;2.64;100.00;100022.19;6151371;23;20039;-78
2024/03/26 06:35:48;;;;;;;7.25;3.50;;;;;;;2.71;100.00;100022.06;6150356;23;20104;-78
2024/03/26 06:38:14;;;;;;;9.00;3.45;;;;;;;2.76;100.00;100013.41;6149736;23;20013;-76
2024/03/26 06:40:39;;;;;;;7.93;3.10;;;;;;;2.82;100.00;100009.81;6176453;23;20013;-78
2024/03/26 06:43:05;;;;;;;6.97;2.85;;;;;;;2.91;100.00;100021.63;6176266;23;20013;-77
2024/03/26 06:45:31;;;;;;;8.48;3.30;;;;;;;2.96;100.00;100011.94;6125048;23;20819;-77
2024/03/26 06:47:57;;;;;;;7.85;3.60;;;;;;;3.05;100.00;100014.19;6101614;23;20471;-77
2024/03/26 06:50:23;;;;;;;5.53;2.97;;;;;;;3.14;100.00;100015.44;6147477;23;20013;-77
2024/03/26 06:52:49;;;;;;;7.95;3.35;;;;;;;3.21;100.00;100010.78;6150508;23;20072;-78
2024/03/26 06:55:16;;;;;;;9.65;2.95;;;;;;;3.27;100.00;100004.53;6175484;23;20012;-77
2024/03/26 06:57:42;;;;;;;;;;;;;;;3.35;100.00;100009.44;6176223;23;20760;-78
2024/03/26 07:00:09;;;;;;;6.88;3.22;;;;;;;3.41;100.00;100011.13;6125369;23;20346;-78
2024/03/26 07:02:35;;;;;;;8.77;3.33;;;;;;;3.49;100.00;99999.34;6100801;23;20027;-78
2024/03/26 07:05:02;;;;;;;9.25;3.85;;;;;;;3.55;100.00;99990.44;6150212;23;20020;-79
2024/03/26 07:07:27;;;;;;;;;;;;;;;3.64;100.00;99996.13;6149799;23;20013;-77
2024/03/26 07:09:53;;;;;;;7.78;3.55;;;;;;;3.71;100.00;99989.59;6125608;23;19971;-78
2024/03/26 07:12:19;;;;;;;9.07;3.05;;;;;;;3.76;100.00;99986.25;6176726;23;20017;-78
2024/03/26 07:14:44;;;;;;;6.90;3.70;;;;;;;3.86;100.00;99989.03;6150193;23;20088;-78
2024/03/26 07:17:10;;;;;;;11.98;3.80;;;;;;;3.98;100.00;99976.47;6172240;23;20067;-77
2024/03/26 07:19:36;;;;;;;8.18;3.60;;;;;;;4.05;100.00;99973.66;6100378;23;20027;-77
2024/03/26 07:22:02;;;;;;;6.53;3.20;;;;;;;4.19;100.00;99966.16;6148954;23;20016;-77
2024/03/26 07:24:27;;;;;;;8.43;3.47;;;;;;;4.25;100.00;99973.13;6150333;23;20016;-78
2024/03/26 07:26:53;;;;;;;7.88;3.65;;;;;;;4.35;100.00;99970.59;6126650;23;20511;-77
2024/03/26 07:29:19;;;;;;;7.85;3.17;;;;;;;4.41;100.00;99977.56;6176773;23;20009;-77
2024/03/26 07:31:44;;;;;;;4.25;2.90;;;;;;;4.51;100.00;99972.38;6124887;23;20017;-77
2024/03/26 07:34:10;;;;;;;7.22;2.88;;;;;;;4.62;100.00;99962.69;6150613;23;20023;-78
2024/03/26 07:36:36;;;;;;;6.05;3.15;;;;;;;4.67;100.00;99960.06;6125564;23;20495;-77
2024/03/26 07:39:02;;;;;;;8.05;2.92;;;;;;;4.67;100.00;99965.38;6149477;23;20013;-77
2024/03/26 07:41:28;;;;;;;8.15;3.42;;;;;;;4.75;100.00;99962.31;6148728;23;20042;-78
2024/03/26 07:43:53;;;;;;;7.50;3.30;;;;;;;4.84;100.00;99952.84;6125152;23;20021;-78
2024/03/26 07:46:19;;;;;;;9.55;3.08;;;;;;;4.97;100.00;99940.22;6149696;23;20803;-78
2024/03/26 07:48:46;;;;;;;5.93;3.28;;;;;;;5.01;100.00;99934.13;6123874;23;20062;-78
2024/03/26 07:51:13;;;;;;;6.88;3.00;;;;;;;5.02;100.00;99934.97;6151214;23;20470;-78
2024/03/26 07:53:40;;;;;;;6.75;3.20;;;;;;;5.07;100.00;99930.47;6149253;23;20028;-78
2024/03/26 07:56:06;;;;;;;8.23;3.33;;;;;;;5.17;100.00;99930.56;6149668;23;20013;-79
2024/03/26 07:58:32;;;;;;;6.78;3.45;;;;;;;5.15;100.00;99934.53;6124276;23;20024;-78
2024/03/26 08:00:59;;;;;;;5.63;3.30;;;;;;;5.23;100.00;99935.94;6150440;23;20017;-78
2024/03/26 08:03:25;;;;;;;5.95;3.00;;;;;;;5.26;100.00;99932.75;6125498;23;20017;-77
2024/03/26 08:05:50;;;;;;;8.73;3.33;;;;;;;5.23;100.00;99933.28;6125472;23;20021;-77
2024/03/26 08:08:16;;;;;;;6.82;3.33;;;;;;;5.31;100.00;99922.19;6149471;23;20020;-75
2024/03/26 08:10:41;;;;;;;7.43;3.40;;;;;;;5.35;100.00;99912.63;6176902;23;20043;-78
2024/03/26 08:13:09;;;;;;;7.25;3.10;;;;;;;5.41;100.00;99917.72;6176073;23;20040;-78
2024/03/26 08:15:36;;;;;;;8.65;3.05;;;;;;;5.54;100.00;99918.34;6148825;23;20092;-77
2024/03/26 08:18:02;;;;;;;9.02;3.50;;;;;;;5.57;100.00;99915.97;6124373;23;20024;-76
2024/03/26 08:20:30;;;;;;;;;;;;;;;5.63;100.00;99920.28;6147483;23;20143;-78
2024/03/26 08:22:57;;;;;;;5.95;3.40;;;;;;;5.63;100.00;99920.28;6175459;23;19911;-79
2024/03/26 08:25:23;;;;;;;7.22;3.10;;;;;;;5.81;100.00;99919.03;6124988;23;20017;-79
2024/03/26 08:27:49;;;;;;;5.95;3.28;;;;;;;5.85;100.00;99919.31;6175474;23;20007;-76
2024/03/26 08:30:15;;;;;;;7.88;3.05;;;;;;;5.91;100.00;99920.97;6149613;23;20020;-78
2024/03/26 08:32:41;;;;;;;5.18;2.90;;;;;;;5.97;100.00;99915.44;6149177;23;20462;-78
2024/03/26 08:35:08;;;;;;;;;;;;;;;6.10;100.00;99922.13;6149837;23;20095;-79
2024/03/26 08:37:35;;;;;;;7.97;3.38;;;;;;;6.15;100.00;99914.16;6098390;23;20607;-77
2024/03/26 08:40:02;;;;;;;6.15;3.20;;;;;;;6.16;100.00;99915.75;6150252;23;20036;-78
2024/03/26 08:42:28;;;;;;;8.35;4.07;;;;;;;6.30;100.00;99924.06;6149858;23;20020;-80
2024/03/26 08:44:54;;;;;;;6.68;3.40;;;;;;;6.39;100.00;99916.38;6175427;23;20404;-78
2024/03/26 08:47:20;;;;;;;6.88;3.20;;;;;;;6.45;100.00;99910.81;6099421;23;20012;-78
2024/03/26 08:49:46;;;;;;;7.50;3.72;;;;;;;6.55;100.00;99902.03;6149527;23;20086;-76
2024/03/26 08:52:12;;;;;;;5.65;3.42;;;;;;;6.57;100.00;99900.75;6175030;23;20575;-78
2024/03/26 08:54:38;;;;;;;8.30;4.28;;;;;;;6.65;100.00;99898.63;6124352;23;20017;-77
2024/03/26 08:57:04;;;;;;;5.82;2.90;;;;;;;6.81;100.00;99898.38;6124189;23;20543;-77
2024/03/26 08:59:30;;;;;;;;;;;;;;;6.89;100.00;99894.38;6149487;23;20075;-77
2024/03/26 09:01:56;;;;;;;6.22;3.15;;;;;;;7.01;100.00;99884.25;6176049;23;19916;-79
2024/03/26 09:04:22;;;;;;;6.85;3.20;;;;;;;7.08;100.00;99886.66;6149857;23;20017;-77
2024/03/26 09:06:48;;;;;;;8.50;3.55;;;;;;;6.97;100.00;99872.53;6147714;23;20017;-77
2024/03/26 09:09:13;;;;;;;4.55;2.65;;;;;;;7.10;100.00;99869.34;6147594;23;20139;-79
2024/03/26 09:11:39;;;;;;;4.97;2.90;;;;;;;7.23;100.00;99862.69;6174549;23;20088;-77
2024/03/26 09:14:05;;;;;;;4.85;2.90;;;;;;;7.20;100.00;99857.91;6174998;23;20603;-79
2024/03/26 09:16:30;;;;;;;5.80;3.28;;;;;;;7.27;100.00;99855.75;6174904;23;20059;-78
2024/03/26 09:18:56;;;;;;;5.03;2.63;;;;;;;7.37;100.00;99841.59;6173960;23;20009;-78
2024/03/26 09:21:22;;;;;;;7.28;3.20;;;;;;;7.58;100.00;99839.69;6147992;23;20023;-76
2024/03/26 09:23:47;;;;;;;6.55;3.22;;;;;;;7.71;100.00;99831.13;6147598;23;20017;-77
2024/03/26 09:26:13;;;;;;;4.88;3.10;;;;;;;7.70;100.00;99824.19;6175414;23;20013;-78
2024/03/26 09:28:38;;;;;;;4.80;2.97;;;;;;;7.70;100.00;99824.19;6174623;23;20036;-78
2024/03/26 09:31:04;;;;;;;3.80;2.40;;;;;;;7.72;100.00;99816.72;6124593;23;20013;-77
2024/03/26 09:33:30;;;;;;;4.80;2.70;;;;;;;7.75;100.00;99818.84;6100656;23;20019;-77
2024/03/26 09:35:56;;;;;;;4.47;2.60;;;;;;;7.93;100.00;99807.59;6123580;23;20082;-77
2024/03/26 09:38:21;;;;;;;6.32;2.63;;;;;;;7.99;100.00;99816.31;6149509;23;20024;-76
2024/03/26 09:40:47;;;;;;;6.50;3.10;;;;;;;8.01;100.00;99808.06;6153717;23;20023;-76
2024/03/26 09:43:14;;;;;;;4.63;2.63;;;;;;;8.13;100.00;99804.00;6173562;23;20009;-76
2024/03/26 09:45:40;;;;;;;5.63;3.35;;;;;;;8.19;100.00;99799.41;6147128;23;20533;-76
2024/03/26 09:48:11;;;;;;;4.78;2.42;;;;;;;8.19;100.00;99791.41;6147839;23;20017;-76
2024/03/26 09:50:39;;;;;;;4.63;3.13;;;;;;;8.29;100.00;99787.91;6145285;23;20090;-79
2024/03/26 09:53:09;;;;;;;4.95;2.38;;;;;;;8.34;100.00;99780.66;6173213;23;20013;-77
2024/03/26 09:55:36;;;;;;;4.15;2.85;;;;;;;8.34;100.00;99771.88;6148006;23;20009;-76
2024/03/26 09:58:02;;;;;;;4.55;2.22;;;;;;;8.44;100.00;99777.13;6124183;23;20009;-79
2024/03/26 10:00:31;;;;;;;4.30;2.60;;;;;;;8.55;100.00;99769.88;6147959;23;20079;-77
2024/03/26 10:02:59;;;;;;;6.88;2.97;;;;;;;8.54;100.00;99763.72;6172925;23;20017;-78
2024/03/26 10:05:25;;;;;;;4.43;2.55;;;;;;;8.64;100.00;99746.81;6148589;23;20735;-77
2024/03/26 10:07:51;;;;;;;6.97;2.85;;;;;;;8.83;100.00;99739.72;6174393;23;20017;-77
2024/03/26 10:10:18;;;;;;;5.05;2.35;;;;;;;8.83;100.00;99749.59;6149914;23;20340;-76
2024/03/26 10:12:43;;;;;;;6.75;2.90;;;;;;;8.81;100.00;99741.88;6149481;23;20019;-76
2024/03/26 10:15:09;;;;;;;4.60;2.47;;;;;;;8.79;100.00;99730.66;6149957;23;20455;-75
2024/03/26 10:17:37;;;;;;;4.75;2.33;;;;;;;8.77;100.00;99724.03;6148321;23;20028;-75
2024/03/26 10:20:04;;;;;;;3.80;2.45;;;;;;;8.73;100.00;99723.78;6124777;23;20051;-75
2024/03/26 10:22:30;;;;;;;4.38;2.00;;;;;;;8.80;100.00;99718.91;6125028;23;20023;-75
2024/03/26 10:24:56;;;;;;;2.80;2.10;;;;;;;8.93;100.00;99707.53;6148981;23;20017;-77
2024/03/26 10:27:22;;;;;;;5.40;2.58;;;;;;;8.93;100.00;99712.88;6149209;23;20028;-76
2024/03/26 10:29:52;;;;;;;4.05;2.50;;;;;;;8.94;100.00;99708.34;6124570;23;20061;-77
2024/03/26 10:32:22;;;;;;;4.72;2.20;;;;;;;8.87;100.00;99708.69;6149440;23;20017;-76
2024/03/26 10:34:54;;;;;;;6.15;2.67;;;;;;;8.87;100.00;99711.34;6149161;23;20024;-76
2024/03/26 10:37:24;;;;;;;4.38;2.67;;;;;;;8.80;100.00;99708.22;6149355;23;20017;-78
2024/03/26 10:40:09;;;;;;;4.95;3.10;;;;;;;8.88;100.00;99699.63;6149219;23;20036;-78
2024/03/26 10:42:43;;;;;;;6.35;2.45;;;;;;;8.81;100.00;99693.81;6150531;23;20020;-78
2024/03/26 10:45:09;;;;;;;5.82;2.80;;;;;;;8.97;100.00;99683.75;6150553;23;20039;-78
2024/03/26 10:47:37;;;;;;;6.07;2.50;;;;;;;9.00;100.00;99680.50;6149986;23;20530;-78
2024/03/26 10:50:03;;;;;;;4.10;2.47;;;;;;;9.11;100.00;99681.19;6149288;23;20020;-78
2024/03/26 10:52:29;;;;;;;4.20;2.88;;;;;;;9.19;100.00;99684.03;6149303;23;20012;-78
2024/03/26 10:54:58;;;;;;;4.07;2.63;;;;;;;9.33;100.00;99676.09;6148937;23;20013;-77
2024/03/26 10:57:24;;;;;;;4.10;2.45;;;;;;;9.46;94.95;99672.72;6148045;23;20062;-76
2024/03/26 10:59:50;;;;;;;5.22;3.00;;;;;;;9.32;90.33;99679.88;6122769;23;20554;-75
2024/03/26 11:02:18;;;;;;;8.98;2.90;;;;;;;9.51;97.82;99670.00;6148467;23;20024;-77
2024/03/26 11:04:46;;;;;;;3.72;2.50;;;;;;;9.57;92.50;99684.88;6149025;23;20499;-75
2024/03/26 11:07:13;;;;;;;5.22;2.70;;;;;;;9.74;94.78;99667.53;6123379;23;20120;-75
2024/03/26 11:09:39;;;;;;;5.90;2.80;;;;;;;9.82;98.46;99667.69;6173883;23;20041;-76
2024/03/26 11:12:10;;;;;;;4.10;2.90;;;;;;;9.78;89.73;99666.66;6149037;23;20028;-76
2024/03/26 11:14:43;;;;;;;5.80;2.70;;;;;;;9.84;91.47;99657.50;6175939;23;20627;-75
2024/03/26 11:17:12;;;;;;;6.07;2.90;;;;;;;9.66;89.76;99655.63;6148620;23;20039;-75
2024/03/26 11:19:42;;;;;;;4.95;2.60;;;;;;;9.60;94.14;99640.72;6149064;23;20087;-75
2024/03/26 11:22:12;;;;;;;5.25;2.60;;;;;;;9.50;95.95;99646.22;6124870;23;20467;-75
2024/03/26 11:24:39;;;;;;;5.30;2.80;;;;;;;9.27;96.55;99635.28;6150256;23;20025;-78